sensor_id;sensor_type;location;lat;lon;timestamp;temperature;humidity
51253;DHT22;38936;47.808;19.936;2022-10-31T00:01:31;11.30;99.90
51253;DHT22;38936;47.808;19.936;2022-10-31T00:03:57;11.30;99.90
51253;DHT22;38936;47.808;19.936;2022-10-31T00:06:23;11.20;99.90
51253;DHT22;38936;47.808;19.936;2022-10-31T00:08:53;11.30;99.90
51253;DHT22;38936;47.808;19.936;2022-10-31T00:11:18;11.20;99.90
51253;DHT22;38936;47.808;19.936;2022-10-31T00:13:44;11.20;99.90
51253;DHT22;38936;47.808;19.936;2022-10-31T00:16:14;11.20;99.90
51253;DHT22;38936;47.808;19.936;2022-10-31T00:18:40;11.20;99.90
51253;DHT22;38936;47.808;19.936;2022-10-31T00:21:05;11.20;99.90
51253;DHT22;38936;47.808;19.936;2022-10-31T00:23:30;11.30;99.90
51253;DHT22;38936;47.808;19.936;2022-10-31T00:26:00;11.20;99.90
51253;DHT22;38936;47.808;19.936;2022-10-31T00:28:25;11.30;99.90
51253;DHT22;38936;47.808;19.936;2022-10-31T00:30:51;11.20;99.90
51253;DHT22;38936;47.808;19.936;2022-10-31T00:33:16;11.30;99.90
51253;DHT22;38936;47.808;19.936;2022-10-31T00:35:42;11.20;99.90
51253;DHT22;38936;47.808;19.936;2022-10-31T00:38:07;11.30;99.90
51253;DHT22;38936;47.808;19.936;2022-10-31T00:40:33;11.30;99.90
51253;DHT22;38936;47.808;19.936;2022-10-31T00:42:58;11.30;99.90
51253;DHT22;38936;47.808;19.936;2022-10-31T00:45:24;11.30;99.90
51253;DHT22;38936;47.808;19.936;2022-10-31T00:47:49;11.20;99.90
51253;DHT22;38936;47.808;19.936;2022-10-31T00:50:15;11.30;99.90
51253;DHT22;38936;47.808;19.936;2022-10-31T00:52:41;11.20;99.90
51253;DHT22;38936;47.808;19.936;2022-10-31T00:55:06;11.20;99.90
51253;DHT22;38936;47.808;19.936;2022-10-31T00:57:32;11.20;99.90
51253;DHT22;38936;47.808;19.936;2022-10-31T00:59:57;11.20;99.90
51253;DHT22;38936;47.808;19.936;2022-10-31T01:02:23;11.20;99.90
51253;DHT22;38936;47.808;19.936;2022-10-31T01:04:48;11.10;99.90
51253;DHT22;38936;47.808;19.936;2022-10-31T01:07:14;11.20;99.90
51253;DHT22;38936;47.808;19.936;2022-10-31T01:09:39;11.20;99.90
51253;DHT22;38936;47.808;19.936;2022-10-31T01:12:05;11.20;99.90
51253;DHT22;38936;47.808;19.936;2022-10-31T01:14:31;11.20;99.90
51253;DHT22;38936;47.808;19.936;2022-10-31T01:16:56;11.10;99.90
51253;DHT22;38936;47.808;19.936;2022-10-31T01:19:22;11.20;99.90
51253;DHT22;38936;47.808;19.936;2022-10-31T01:21:47;11.10;99.90
51253;DHT22;38936;47.808;19.936;2022-10-31T01:24:13;11.10;99.90
51253;DHT22;38936;47.808;19.936;2022-10-31T01:26:38;11.10;99.90
51253;DHT22;38936;47.808;19.936;2022-10-31T01:29:04;11.00;99.90
51253;DHT22;38936;47.808;19.936;2022-10-31T01:31:32;11.00;99.90
51253;DHT22;38936;47.808;19.936;2022-10-31T01:33:58;11.00;99.90
51253;DHT22;38936;47.808;19.936;2022-10-31T01:36:25;11.00;99.90
51253;DHT22;38936;47.808;19.936;2022-10-31T01:38:52;11.00;99.90
51253;DHT22;38936;47.808;19.936;2022-10-31T01:41:22;11.10;99.90
51253;DHT22;38936;47.808;19.936;2022-10-31T01:43:49;11.00;99.90
51253;DHT22;38936;47.808;19.936;2022-10-31T01:46:16;11.10;99.90
51253;DHT22;38936;47.808;19.936;2022-10-31T01:48:42;11.00;99.90
51253;DHT22;38936;47.808;19.936;2022-10-31T01:51:08;11.00;99.90
51253;DHT22;38936;47.808;19.936;2022-10-31T01:53:36;11.00;99.90
51253;DHT22;38936;47.808;19.936;2022-10-31T01:56:02;11.10;99.90
51253;DHT22;38936;47.808;19.936;2022-10-31T01:58:28;11.10;99.90
51253;DHT22;38936;47.808;19.936;2022-10-31T02:00:55;11.20;99.90
51253;DHT22;38936;47.808;19.936;2022-10-31T02:03:22;11.00;99.90
51253;DHT22;38936;47.808;19.936;2022-10-31T02:05:49;11.00;99.90
51253;DHT22;38936;47.808;19.936;2022-10-31T02:10:40;11.00;99.90
51253;DHT22;38936;47.808;19.936;2022-10-31T02:13:07;11.00;99.90
51253;DHT22;38936;47.808;19.936;2022-10-31T02:15:33;11.00;99.90
51253;DHT22;38936;47.808;19.936;2022-10-31T02:18:00;11.00;99.90
51253;DHT22;38936;47.808;19.936;2022-10-31T02:20:27;11.10;99.90
51253;DHT22;38936;47.808;19.936;2022-10-31T02:23:02;11.00;99.90
51253;DHT22;38936;47.808;19.936;2022-10-31T02:28:21;11.00;99.90
51253;DHT22;38936;47.808;19.936;2022-10-31T02:38:27;11.10;99.90
51253;DHT22;38936;47.808;19.936;2022-10-31T02:41:18;11.10;99.90
51253;DHT22;38936;47.808;19.936;2022-10-31T02:43:42;11.10;99.90
51253;DHT22;38936;47.808;19.936;2022-10-31T02:46:43;11.10;99.90
51253;DHT22;38936;47.808;19.936;2022-10-31T02:49:03;11.10;99.90
51253;DHT22;38936;47.808;19.936;2022-10-31T02:51:31;11.00;99.90
51253;DHT22;38936;47.808;19.936;2022-10-31T02:53:56;11.00;99.90
51253;DHT22;38936;47.808;19.936;2022-10-31T02:56:22;10.90;99.90
51253;DHT22;38936;47.808;19.936;2022-10-31T03:06:28;10.80;99.90
51253;DHT22;38936;47.808;19.936;2022-10-31T03:11:22;10.80;99.90
51253;DHT22;38936;47.808;19.936;2022-10-31T03:18:40;10.80;99.90
51253;DHT22;38936;47.808;19.936;2022-10-31T03:23:31;10.80;99.90
51253;DHT22;38936;47.808;19.936;2022-10-31T03:25:59;10.80;99.90
51253;DHT22;38936;47.808;19.936;2022-10-31T03:28:29;10.80;99.90
51253;DHT22;38936;47.808;19.936;2022-10-31T03:30:55;10.90;99.90
51253;DHT22;38936;47.808;19.936;2022-10-31T03:33:24;10.90;99.90
51253;DHT22;38936;47.808;19.936;2022-10-31T03:35:51;10.90;99.90
51253;DHT22;38936;47.808;19.936;2022-10-31T03:38:18;10.80;99.90
51253;DHT22;38936;47.808;19.936;2022-10-31T03:40:45;10.90;99.90
51253;DHT22;38936;47.808;19.936;2022-10-31T03:43:13;10.80;99.90
51253;DHT22;38936;47.808;19.936;2022-10-31T03:45:41;10.80;99.90
51253;DHT22;38936;47.808;19.936;2022-10-31T03:48:07;10.80;99.90
51253;DHT22;38936;47.808;19.936;2022-10-31T03:50:55;10.80;99.90
51253;DHT22;38936;47.808;19.936;2022-10-31T03:53:32;10.80;99.90
51253;DHT22;38936;47.808;19.936;2022-10-31T03:56:00;10.80;99.90
51253;DHT22;38936;47.808;19.936;2022-10-31T03:58:34;10.80;99.90
51253;DHT22;38936;47.808;19.936;2022-10-31T04:01:02;10.80;99.90
51253;DHT22;38936;47.808;19.936;2022-10-31T04:03:30;10.80;99.90
51253;DHT22;38936;47.808;19.936;2022-10-31T04:05:58;10.80;99.90
51253;DHT22;38936;47.808;19.936;2022-10-31T04:08:25;10.80;99.90
51253;DHT22;38936;47.808;19.936;2022-10-31T04:10:51;10.80;99.90
51253;DHT22;38936;47.808;19.936;2022-10-31T04:13:19;10.80;99.90
51253;DHT22;38936;47.808;19.936;2022-10-31T04:15:45;10.80;99.90
51253;DHT22;38936;47.808;19.936;2022-10-31T04:18:12;10.70;99.90
51253;DHT22;38936;47.808;19.936;2022-10-31T04:20:38;10.80;99.90
51253;DHT22;38936;47.808;19.936;2022-10-31T04:23:04;10.70;99.90
51253;DHT22;38936;47.808;19.936;2022-10-31T04:25:30;10.80;99.90
51253;DHT22;38936;47.808;19.936;2022-10-31T04:27:56;10.70;99.90
51253;DHT22;38936;47.808;19.936;2022-10-31T04:30:21;10.70;99.90
51253;DHT22;38936;47.808;19.936;2022-10-31T04:32:47;10.80;99.90
51253;DHT22;38936;47.808;19.936;2022-10-31T04:35:13;10.70;99.90
51253;DHT22;38936;47.808;19.936;2022-10-31T04:37:38;10.70;99.90
51253;DHT22;38936;47.808;19.936;2022-10-31T04:40:04;10.70;99.90
51253;DHT22;38936;47.808;19.936;2022-10-31T04:42:30;10.70;99.90
51253;DHT22;38936;47.808;19.936;2022-10-31T04:44:55;10.70;99.90
51253;DHT22;38936;47.808;19.936;2022-10-31T04:47:21;10.70;99.90
51253;DHT22;38936;47.808;19.936;2022-10-31T04:49:46;10.70;99.90
51253;DHT22;38936;47.808;19.936;2022-10-31T04:52:12;10.60;99.90
51253;DHT22;38936;47.808;19.936;2022-10-31T04:54:37;10.60;99.90
51253;DHT22;38936;47.808;19.936;2022-10-31T04:57:03;10.60;99.90
51253;DHT22;38936;47.808;19.936;2022-10-31T04:59:28;10.60;99.90
51253;DHT22;38936;47.808;19.936;2022-10-31T05:01:54;10.50;99.90
51253;DHT22;38936;47.808;19.936;2022-10-31T05:04:19;10.50;99.90
51253;DHT22;38936;47.808;19.936;2022-10-31T05:06:45;10.50;99.90
51253;DHT22;38936;47.808;19.936;2022-10-31T05:09:10;10.50;99.90
51253;DHT22;38936;47.808;19.936;2022-10-31T05:11:36;10.50;99.90
51253;DHT22;38936;47.808;19.936;2022-10-31T05:14:01;10.50;99.90
51253;DHT22;38936;47.808;19.936;2022-10-31T05:16:27;10.40;99.90
51253;DHT22;38936;47.808;19.936;2022-10-31T05:18:53;10.50;99.90
51253;DHT22;38936;47.808;19.936;2022-10-31T05:21:18;10.50;99.90
51253;DHT22;38936;47.808;19.936;2022-10-31T05:23:44;10.60;99.90
51253;DHT22;38936;47.808;19.936;2022-10-31T05:26:09;10.50;99.90
51253;DHT22;38936;47.808;19.936;2022-10-31T05:28:35;10.50;99.90
51253;DHT22;38936;47.808;19.936;2022-10-31T05:31:00;10.50;99.90
51253;DHT22;38936;47.808;19.936;2022-10-31T05:33:26;10.50;99.90
51253;DHT22;38936;47.808;19.936;2022-10-31T05:35:51;10.60;99.90
51253;DHT22;38936;47.808;19.936;2022-10-31T05:38:17;10.60;99.90
51253;DHT22;38936;47.808;19.936;2022-10-31T05:40:42;10.50;99.90
51253;DHT22;38936;47.808;19.936;2022-10-31T05:43:08;10.50;99.90
51253;DHT22;38936;47.808;19.936;2022-10-31T05:45:33;10.50;99.90
51253;DHT22;38936;47.808;19.936;2022-10-31T05:47:59;10.50;99.90
51253;DHT22;38936;47.808;19.936;2022-10-31T05:50:25;10.60;99.90
51253;DHT22;38936;47.808;19.936;2022-10-31T05:52:59;10.50;99.90
51253;DHT22;38936;47.808;19.936;2022-10-31T05:55:25;10.60;99.90
51253;DHT22;38936;47.808;19.936;2022-10-31T05:57:51;10.60;99.90
51253;DHT22;38936;47.808;19.936;2022-10-31T06:00:17;10.60;99.90
51253;DHT22;38936;47.808;19.936;2022-10-31T06:02:42;10.60;99.90
51253;DHT22;38936;47.808;19.936;2022-10-31T06:05:08;10.60;99.90
51253;DHT22;38936;47.808;19.936;2022-10-31T06:07:34;10.70;99.90
51253;DHT22;38936;47.808;19.936;2022-10-31T06:10:00;10.70;99.90
51253;DHT22;38936;47.808;19.936;2022-10-31T06:12:26;10.70;99.90
51253;DHT22;38936;47.808;19.936;2022-10-31T06:14:51;10.80;99.90
51253;DHT22;38936;47.808;19.936;2022-10-31T06:17:17;10.80;99.90
51253;DHT22;38936;47.808;19.936;2022-10-31T06:19:42;10.80;99.90
51253;DHT22;38936;47.808;19.936;2022-10-31T06:22:08;10.90;99.90
51253;DHT22;38936;47.808;19.936;2022-10-31T06:24:33;10.90;99.90
51253;DHT22;38936;47.808;19.936;2022-10-31T06:26:59;10.90;99.90
51253;DHT22;38936;47.808;19.936;2022-10-31T06:29:24;10.90;99.90
51253;DHT22;38936;47.808;19.936;2022-10-31T06:31:53;10.90;99.90
51253;DHT22;38936;47.808;19.936;2022-10-31T06:34:19;10.90;99.90
51253;DHT22;38936;47.808;19.936;2022-10-31T06:36:45;10.90;99.90
51253;DHT22;38936;47.808;19.936;2022-10-31T06:39:11;10.90;99.90
51253;DHT22;38936;47.808;19.936;2022-10-31T06:41:36;11.00;99.90
51253;DHT22;38936;47.808;19.936;2022-10-31T06:44:02;11.00;99.90
51253;DHT22;38936;47.808;19.936;2022-10-31T06:46:27;11.00;99.90
51253;DHT22;38936;47.808;19.936;2022-10-31T06:48:53;11.00;99.90
51253;DHT22;38936;47.808;19.936;2022-10-31T06:51:18;11.10;99.90
51253;DHT22;38936;47.808;19.936;2022-10-31T06:53:44;11.10;99.90
51253;DHT22;38936;47.808;19.936;2022-10-31T06:56:09;11.10;99.90
51253;DHT22;38936;47.808;19.936;2022-10-31T06:58:35;11.10;99.90
51253;DHT22;38936;47.808;19.936;2022-10-31T07:01:00;11.10;99.90
51253;DHT22;38936;47.808;19.936;2022-10-31T07:03:26;11.10;99.90
51253;DHT22;38936;47.808;19.936;2022-10-31T07:05:51;11.20;99.90
51253;DHT22;38936;47.808;19.936;2022-10-31T07:10:21;11.30;99.90
51253;DHT22;38936;47.808;19.936;2022-10-31T07:12:47;11.30;99.90
51253;DHT22;38936;47.808;19.936;2022-10-31T07:15:13;11.30;99.90
51253;DHT22;38936;47.808;19.936;2022-10-31T07:17:38;11.40;99.90
51253;DHT22;38936;47.808;19.936;2022-10-31T07:20:04;11.40;99.90
51253;DHT22;38936;47.808;19.936;2022-10-31T07:22:34;11.40;99.90
51253;DHT22;38936;47.808;19.936;2022-10-31T07:25:00;11.50;99.90
51253;DHT22;38936;47.808;19.936;2022-10-31T07:27:25;11.50;99.90
51253;DHT22;38936;47.808;19.936;2022-10-31T07:29:51;11.60;99.90
51253;DHT22;38936;47.808;19.936;2022-10-31T07:32:17;11.70;99.90
51253;DHT22;38936;47.808;19.936;2022-10-31T07:34:42;11.70;99.90
51253;DHT22;38936;47.808;19.936;2022-10-31T07:37:08;11.70;99.90
51253;DHT22;38936;47.808;19.936;2022-10-31T07:39:33;11.80;99.90
51253;DHT22;38936;47.808;19.936;2022-10-31T07:41:59;11.80;99.90
51253;DHT22;38936;47.808;19.936;2022-10-31T07:44:24;11.80;99.90
51253;DHT22;38936;47.808;19.936;2022-10-31T07:46:50;11.80;99.90
51253;DHT22;38936;47.808;19.936;2022-10-31T07:49:15;11.80;99.90
51253;DHT22;38936;47.808;19.936;2022-10-31T07:51:41;11.80;99.90
51253;DHT22;38936;47.808;19.936;2022-10-31T07:54:06;11.70;99.90
51253;DHT22;38936;47.808;19.936;2022-10-31T07:56:32;11.70;99.90
51253;DHT22;38936;47.808;19.936;2022-10-31T07:58:58;11.70;99.90
51253;DHT22;38936;47.808;19.936;2022-10-31T08:01:23;11.80;99.90
51253;DHT22;38936;47.808;19.936;2022-10-31T08:03:49;11.80;99.90
51253;DHT22;38936;47.808;19.936;2022-10-31T08:06:15;11.80;99.90
51253;DHT22;38936;47.808;19.936;2022-10-31T08:08:40;11.70;99.90
51253;DHT22;38936;47.808;19.936;2022-10-31T08:11:06;11.80;99.90
51253;DHT22;38936;47.808;19.936;2022-10-31T08:13:31;11.70;99.90
51253;DHT22;38936;47.808;19.936;2022-10-31T08:15:57;11.80;99.90
51253;DHT22;38936;47.808;19.936;2022-10-31T08:18:28;11.80;99.90
51253;DHT22;38936;47.808;19.936;2022-10-31T08:20:54;11.90;99.90
51253;DHT22;38936;47.808;19.936;2022-10-31T08:23:20;11.90;99.90
51253;DHT22;38936;47.808;19.936;2022-10-31T08:25:46;11.80;99.90
51253;DHT22;38936;47.808;19.936;2022-10-31T08:28:14;11.80;99.90
51253;DHT22;38936;47.808;19.936;2022-10-31T08:30:40;11.90;99.90
51253;DHT22;38936;47.808;19.936;2022-10-31T08:33:11;11.90;99.90
51253;DHT22;38936;47.808;19.936;2022-10-31T08:35:37;11.90;99.90
51253;DHT22;38936;47.808;19.936;2022-10-31T08:38:03;11.90;99.90
51253;DHT22;38936;47.808;19.936;2022-10-31T08:40:30;12.00;99.90
51253;DHT22;38936;47.808;19.936;2022-10-31T08:43:01;12.00;99.90
51253;DHT22;38936;47.808;19.936;2022-10-31T08:45:28;12.00;99.90
51253;DHT22;38936;47.808;19.936;2022-10-31T08:48:04;12.10;99.90
51253;DHT22;38936;47.808;19.936;2022-10-31T08:50:32;12.10;99.90
51253;DHT22;38936;47.808;19.936;2022-10-31T08:53:06;12.20;99.90
51253;DHT22;38936;47.808;19.936;2022-10-31T08:55:34;12.20;99.90
51253;DHT22;38936;47.808;19.936;2022-10-31T08:58:00;12.30;99.90
51253;DHT22;38936;47.808;19.936;2022-10-31T09:00:26;12.30;99.90
51253;DHT22;38936;47.808;19.936;2022-10-31T09:03:05;12.30;99.90
51253;DHT22;38936;47.808;19.936;2022-10-31T09:05:32;12.30;99.90
51253;DHT22;38936;47.808;19.936;2022-10-31T09:07:59;12.40;99.90
51253;DHT22;38936;47.808;19.936;2022-10-31T09:10:26;12.40;99.90
51253;DHT22;38936;47.808;19.936;2022-10-31T09:12:59;12.40;99.90
51253;DHT22;38936;47.808;19.936;2022-10-31T09:15:26;12.50;99.90
51253;DHT22;38936;47.808;19.936;2022-10-31T09:17:52;12.50;99.90
51253;DHT22;38936;47.808;19.936;2022-10-31T09:20:18;12.50;99.90
51253;DHT22;38936;47.808;19.936;2022-10-31T09:22:44;12.60;99.90
51253;DHT22;38936;47.808;19.936;2022-10-31T09:25:10;12.50;99.90
51253;DHT22;38936;47.808;19.936;2022-10-31T09:27:36;12.60;99.90
51253;DHT22;38936;47.808;19.936;2022-10-31T09:30:02;12.60;99.90
51253;DHT22;38936;47.808;19.936;2022-10-31T09:32:27;12.60;99.90
51253;DHT22;38936;47.808;19.936;2022-10-31T09:34:53;12.60;99.90
51253;DHT22;38936;47.808;19.936;2022-10-31T09:37:19;12.60;99.90
51253;DHT22;38936;47.808;19.936;2022-10-31T09:39:44;12.70;99.90
51253;DHT22;38936;47.808;19.936;2022-10-31T09:53:13;12.70;99.90
51253;DHT22;38936;47.808;19.936;2022-10-31T09:55:44;12.70;99.90
51253;DHT22;38936;47.808;19.936;2022-10-31T09:58:30;12.70;99.90
51253;DHT22;38936;47.808;19.936;2022-10-31T10:01:00;12.80;99.90
51253;DHT22;38936;47.808;19.936;2022-10-31T10:03:42;12.80;99.90
51253;DHT22;38936;47.808;19.936;2022-10-31T10:06:19;12.90;99.90
51253;DHT22;38936;47.808;19.936;2022-10-31T10:08:46;13.00;99.90
51253;DHT22;38936;47.808;19.936;2022-10-31T10:19:37;13.00;99.90
51253;DHT22;38936;47.808;19.936;2022-10-31T10:22:28;13.00;99.90
51253;DHT22;38936;47.808;19.936;2022-10-31T10:27:52;12.90;99.90
51253;DHT22;38936;47.808;19.936;2022-10-31T10:30:37;12.90;99.90
51253;DHT22;38936;47.808;19.936;2022-10-31T10:33:17;12.80;99.90
51253;DHT22;38936;47.808;19.936;2022-10-31T10:35:55;12.90;99.90
51253;DHT22;38936;47.808;19.936;2022-10-31T10:38:32;12.90;99.90
51253;DHT22;38936;47.808;19.936;2022-10-31T10:41:07;12.80;99.90
51253;DHT22;38936;47.808;19.936;2022-10-31T10:43:38;12.80;99.90
51253;DHT22;38936;47.808;19.936;2022-10-31T10:51:46;12.80;99.90
51253;DHT22;38936;47.808;19.936;2022-10-31T10:59:37;12.90;99.90
51253;DHT22;38936;47.808;19.936;2022-10-31T11:02:03;12.90;99.90
51253;DHT22;38936;47.808;19.936;2022-10-31T11:04:35;12.90;99.90
51253;DHT22;38936;47.808;19.936;2022-10-31T11:07:10;12.90;99.90
51253;DHT22;38936;47.808;19.936;2022-10-31T11:09:37;12.90;99.90
51253;DHT22;38936;47.808;19.936;2022-10-31T11:12:18;12.90;99.90
51253;DHT22;38936;47.808;19.936;2022-10-31T11:14:51;12.90;99.90
51253;DHT22;38936;47.808;19.936;2022-10-31T11:17:32;13.00;99.90
51253;DHT22;38936;47.808;19.936;2022-10-31T11:22:30;12.80;99.90
51253;DHT22;38936;47.808;19.936;2022-10-31T11:24:55;12.80;99.90
51253;DHT22;38936;47.808;19.936;2022-10-31T11:27:23;12.80;99.90
51253;DHT22;38936;47.808;19.936;2022-10-31T11:29:50;12.80;99.90
51253;DHT22;38936;47.808;19.936;2022-10-31T11:32:21;12.80;99.90
51253;DHT22;38936;47.808;19.936;2022-10-31T11:34:50;12.80;99.90
51253;DHT22;38936;47.808;19.936;2022-10-31T11:37:23;12.80;99.90
51253;DHT22;38936;47.808;19.936;2022-10-31T11:39:54;12.90;99.90
51253;DHT22;38936;47.808;19.936;2022-10-31T11:42:23;12.90;99.90
51253;DHT22;38936;47.808;19.936;2022-10-31T11:44:50;12.90;99.90
51253;DHT22;38936;47.808;19.936;2022-10-31T11:47:18;12.90;99.90
51253;DHT22;38936;47.808;19.936;2022-10-31T11:49:48;12.90;99.90
51253;DHT22;38936;47.808;19.936;2022-10-31T11:52:37;12.90;99.90
51253;DHT22;38936;47.808;19.936;2022-10-31T11:57:46;12.90;99.90
51253;DHT22;38936;47.808;19.936;2022-10-31T12:00:31;12.90;99.90
51253;DHT22;38936;47.808;19.936;2022-10-31T12:03:28;12.80;99.90
51253;DHT22;38936;47.808;19.936;2022-10-31T12:08:29;12.70;99.90
51253;DHT22;38936;47.808;19.936;2022-10-31T12:13:30;12.70;99.90
51253;DHT22;38936;47.808;19.936;2022-10-31T12:16:34;12.70;99.90
51253;DHT22;38936;47.808;19.936;2022-10-31T12:19:06;12.70;99.90
51253;DHT22;38936;47.808;19.936;2022-10-31T12:29:26;12.70;99.90
51253;DHT22;38936;47.808;19.936;2022-10-31T12:34:42;12.70;99.90
51253;DHT22;38936;47.808;19.936;2022-10-31T12:37:47;12.70;99.90
51253;DHT22;38936;47.808;19.936;2022-10-31T12:48:16;12.70;99.90
51253;DHT22;38936;47.808;19.936;2022-10-31T12:51:13;12.70;99.90
51253;DHT22;38936;47.808;19.936;2022-10-31T12:59:34;12.70;99.90
51253;DHT22;38936;47.808;19.936;2022-10-31T13:02:16;12.70;99.90
51253;DHT22;38936;47.808;19.936;2022-10-31T13:07:58;12.70;99.90
51253;DHT22;38936;47.808;19.936;2022-10-31T13:10:47;12.70;99.90
51253;DHT22;38936;47.808;19.936;2022-10-31T13:13:32;12.60;99.90
51253;DHT22;38936;47.808;19.936;2022-10-31T13:18:52;12.50;99.90
51253;DHT22;38936;47.808;19.936;2022-10-31T13:21:45;12.50;99.90
51253;DHT22;38936;47.808;19.936;2022-10-31T13:24:22;12.50;99.90
51253;DHT22;38936;47.808;19.936;2022-10-31T13:26:54;12.50;99.90
51253;DHT22;38936;47.808;19.936;2022-10-31T13:29:24;12.50;99.90
51253;DHT22;38936;47.808;19.936;2022-10-31T13:31:52;12.60;99.90
51253;DHT22;38936;47.808;19.936;2022-10-31T13:34:38;12.50;99.90
51253;DHT22;38936;47.808;19.936;2022-10-31T13:43:05;12.60;99.90
51253;DHT22;38936;47.808;19.936;2022-10-31T13:45:32;12.50;99.90
51253;DHT22;38936;47.808;19.936;2022-10-31T13:48:19;12.50;99.90
51253;DHT22;38936;47.808;19.936;2022-10-31T13:50:57;12.50;99.90
51253;DHT22;38936;47.808;19.936;2022-10-31T13:53:45;12.40;99.90
51253;DHT22;38936;47.808;19.936;2022-10-31T13:56:28;12.50;99.90
51253;DHT22;38936;47.808;19.936;2022-10-31T13:59:01;12.40;99.90
51253;DHT22;38936;47.808;19.936;2022-10-31T14:01:27;12.40;99.90
51253;DHT22;38936;47.808;19.936;2022-10-31T14:04:04;12.30;99.90
51253;DHT22;38936;47.808;19.936;2022-10-31T14:09:04;12.30;99.90
51253;DHT22;38936;47.808;19.936;2022-10-31T14:11:30;12.30;99.90
51253;DHT22;38936;47.808;19.936;2022-10-31T14:13:57;12.30;99.90
51253;DHT22;38936;47.808;19.936;2022-10-31T14:19:05;12.30;99.90
51253;DHT22;38936;47.808;19.936;2022-10-31T14:21:38;12.30;99.90
51253;DHT22;38936;47.808;19.936;2022-10-31T14:29:33;12.20;99.90
51253;DHT22;38936;47.808;19.936;2022-10-31T14:34:41;12.10;99.90
51253;DHT22;38936;47.808;19.936;2022-10-31T14:51:18;12.20;99.90
51253;DHT22;38936;47.808;19.936;2022-10-31T14:53:55;12.20;99.90
51253;DHT22;38936;47.808;19.936;2022-10-31T14:56:30;12.10;99.90
51253;DHT22;38936;47.808;19.936;2022-10-31T14:59:09;12.10;99.90
51253;DHT22;38936;47.808;19.936;2022-10-31T15:01:38;12.10;99.90
51253;DHT22;38936;47.808;19.936;2022-10-31T15:04:22;12.10;99.90
51253;DHT22;38936;47.808;19.936;2022-10-31T15:09:29;12.10;99.90
51253;DHT22;38936;47.808;19.936;2022-10-31T15:11:57;12.10;99.90
51253;DHT22;38936;47.808;19.936;2022-10-31T15:14:29;12.10;99.90
51253;DHT22;38936;47.808;19.936;2022-10-31T15:17:01;12.10;99.90
51253;DHT22;38936;47.808;19.936;2022-10-31T15:19:30;12.10;99.90
51253;DHT22;38936;47.808;19.936;2022-10-31T15:21:57;12.10;99.90
51253;DHT22;38936;47.808;19.936;2022-10-31T15:24:26;12.00;99.90
51253;DHT22;38936;47.808;19.936;2022-10-31T15:26:54;12.10;99.90
51253;DHT22;38936;47.808;19.936;2022-10-31T15:29:22;12.00;99.90
51253;DHT22;38936;47.808;19.936;2022-10-31T15:31:57;12.00;99.90
51253;DHT22;38936;47.808;19.936;2022-10-31T15:34:35;12.00;99.90
51253;DHT22;38936;47.808;19.936;2022-10-31T15:37:02;12.00;99.90
51253;DHT22;38936;47.808;19.936;2022-10-31T15:39:28;11.90;99.90
51253;DHT22;38936;47.808;19.936;2022-10-31T15:41:55;11.90;99.90
51253;DHT22;38936;47.808;19.936;2022-10-31T15:44:30;11.90;99.90
51253;DHT22;38936;47.808;19.936;2022-10-31T15:47:03;11.90;99.90
51253;DHT22;38936;47.808;19.936;2022-10-31T15:52:06;11.90;99.90
51253;DHT22;38936;47.808;19.936;2022-10-31T15:54:36;11.90;99.90
51253;DHT22;38936;47.808;19.936;2022-10-31T15:57:12;11.90;99.90
51253;DHT22;38936;47.808;19.936;2022-10-31T15:59:40;11.90;99.90
51253;DHT22;38936;47.808;19.936;2022-10-31T16:02:11;11.90;99.90
51253;DHT22;38936;47.808;19.936;2022-10-31T16:04:37;11.90;99.90
51253;DHT22;38936;47.808;19.936;2022-10-31T16:07:11;11.90;99.90
51253;DHT22;38936;47.808;19.936;2022-10-31T16:09:37;12.00;99.90
51253;DHT22;38936;47.808;19.936;2022-10-31T16:12:15;11.90;99.90
51253;DHT22;38936;47.808;19.936;2022-10-31T16:14:41;11.90;99.90
51253;DHT22;38936;47.808;19.936;2022-10-31T16:17:15;11.90;99.90
51253;DHT22;38936;47.808;19.936;2022-10-31T16:20:01;11.90;99.90
51253;DHT22;38936;47.808;19.936;2022-10-31T16:22:31;11.90;99.90
51253;DHT22;38936;47.808;19.936;2022-10-31T16:25:16;11.90;99.90
51253;DHT22;38936;47.808;19.936;2022-10-31T16:27:50;11.90;99.90
51253;DHT22;38936;47.808;19.936;2022-10-31T16:30:45;11.90;99.90
51253;DHT22;38936;47.808;19.936;2022-10-31T16:35:52;11.90;99.90
51253;DHT22;38936;47.808;19.936;2022-10-31T16:38:18;11.90;99.90
51253;DHT22;38936;47.808;19.936;2022-10-31T16:40:43;11.90;99.90
51253;DHT22;38936;47.808;19.936;2022-10-31T16:43:14;11.90;99.90
51253;DHT22;38936;47.808;19.936;2022-10-31T16:45:48;11.90;99.90
51253;DHT22;38936;47.808;19.936;2022-10-31T16:48:16;12.00;99.90
51253;DHT22;38936;47.808;19.936;2022-10-31T16:50:43;11.90;99.90
51253;DHT22;38936;47.808;19.936;2022-10-31T16:53:10;11.90;99.90
51253;DHT22;38936;47.808;19.936;2022-10-31T16:55:46;11.90;99.90
51253;DHT22;38936;47.808;19.936;2022-10-31T16:58:23;12.00;99.90
51253;DHT22;38936;47.808;19.936;2022-10-31T17:00:49;11.90;99.90
51253;DHT22;38936;47.808;19.936;2022-10-31T17:03:15;11.90;99.90
51253;DHT22;38936;47.808;19.936;2022-10-31T17:05:41;11.90;99.90
51253;DHT22;38936;47.808;19.936;2022-10-31T17:08:06;11.90;99.90
51253;DHT22;38936;47.808;19.936;2022-10-31T17:10:32;11.90;99.90
51253;DHT22;38936;47.808;19.936;2022-10-31T17:12:57;11.90;99.90
51253;DHT22;38936;47.808;19.936;2022-10-31T17:15:26;11.80;99.90
51253;DHT22;38936;47.808;19.936;2022-10-31T17:17:53;11.80;99.90
51253;DHT22;38936;47.808;19.936;2022-10-31T17:20:25;11.90;99.90
51253;DHT22;38936;47.808;19.936;2022-10-31T17:22:51;11.80;99.90
51253;DHT22;38936;47.808;19.936;2022-10-31T17:25:20;11.80;99.90
51253;DHT22;38936;47.808;19.936;2022-10-31T17:27:47;11.80;99.90
51253;DHT22;38936;47.808;19.936;2022-10-31T17:30:13;11.80;99.90
51253;DHT22;38936;47.808;19.936;2022-10-31T17:32:40;11.80;99.90
51253;DHT22;38936;47.808;19.936;2022-10-31T17:35:09;11.80;99.90
51253;DHT22;38936;47.808;19.936;2022-10-31T17:37:35;11.80;99.90
51253;DHT22;38936;47.808;19.936;2022-10-31T17:40:01;11.80;99.90
51253;DHT22;38936;47.808;19.936;2022-10-31T17:42:26;11.70;99.90
51253;DHT22;38936;47.808;19.936;2022-10-31T17:44:52;11.70;99.90
51253;DHT22;38936;47.808;19.936;2022-10-31T17:47:17;11.70;99.90
51253;DHT22;38936;47.808;19.936;2022-10-31T17:49:43;11.70;99.90
51253;DHT22;38936;47.808;19.936;2022-10-31T17:52:08;11.70;99.90
51253;DHT22;38936;47.808;19.936;2022-10-31T17:54:34;11.70;99.90